sensor_id;sensor_type;location;lat;lon;timestamp;temperature;humidity
59307;DHT22;47983;53.016;-2.260;2023-09-12T00:01:37;17.10;99.90
59307;DHT22;47983;53.016;-2.260;2023-09-12T00:04:05;17.10;99.90
59307;DHT22;47983;53.016;-2.260;2023-09-12T00:06:33;17.10;99.90
59307;DHT22;47983;53.016;-2.260;2023-09-12T00:09:01;17.10;99.90
59307;DHT22;47983;53.016;-2.260;2023-09-12T00:11:29;17.10;99.90
59307;DHT22;47983;53.016;-2.260;2023-09-12T00:13:56;17.20;99.90
59307;DHT22;47983;53.016;-2.260;2023-09-12T00:16:24;17.20;99.90
59307;DHT22;47983;53.016;-2.260;2023-09-12T00:18:52;17.10;99.90
59307;DHT22;47983;53.016;-2.260;2023-09-12T00:21:20;17.20;99.90
59307;DHT22;47983;53.016;-2.260;2023-09-12T00:23:48;17.10;99.90
59307;DHT22;47983;53.016;-2.260;2023-09-12T00:26:16;17.20;99.90
59307;DHT22;47983;53.016;-2.260;2023-09-12T00:28:45;17.20;99.90
59307;DHT22;47983;53.016;-2.260;2023-09-12T00:31:13;17.20;99.90
59307;DHT22;47983;53.016;-2.260;2023-09-12T00:33:40;17.20;99.90
59307;DHT22;47983;53.016;-2.260;2023-09-12T00:36:08;17.20;99.90
59307;DHT22;47983;53.016;-2.260;2023-09-12T00:38:36;17.20;99.90
59307;DHT22;47983;53.016;-2.260;2023-09-12T00:41:03;17.20;99.90
59307;DHT22;47983;53.016;-2.260;2023-09-12T00:43:31;17.20;99.90
59307;DHT22;47983;53.016;-2.260;2023-09-12T00:45:59;17.20;99.90
59307;DHT22;47983;53.016;-2.260;2023-09-12T00:48:26;17.10;99.90
59307;DHT22;47983;53.016;-2.260;2023-09-12T00:50:57;17.10;99.90
59307;DHT22;47983;53.016;-2.260;2023-09-12T00:53:28;17.10;99.90
59307;DHT22;47983;53.016;-2.260;2023-09-12T00:55:57;17.10;99.90
59307;DHT22;47983;53.016;-2.260;2023-09-12T00:58:27;17.10;99.90
59307;DHT22;47983;53.016;-2.260;2023-09-12T01:00:56;17.10;99.90
59307;DHT22;47983;53.016;-2.260;2023-09-12T01:03:25;17.10;99.90
59307;DHT22;47983;53.016;-2.260;2023-09-12T01:05:53;17.10;99.90
59307;DHT22;47983;53.016;-2.260;2023-09-12T01:08:21;17.10;99.90
59307;DHT22;47983;53.016;-2.260;2023-09-12T01:10:50;17.10;99.90
59307;DHT22;47983;53.016;-2.260;2023-09-12T01:13:20;17.10;99.90
59307;DHT22;47983;53.016;-2.260;2023-09-12T01:15:48;17.10;99.90
59307;DHT22;47983;53.016;-2.260;2023-09-12T01:18:16;17.10;99.90
59307;DHT22;47983;53.016;-2.260;2023-09-12T01:21:42;17.10;99.90
59307;DHT22;47983;53.016;-2.260;2023-09-12T01:26:56;17.10;99.90
59307;DHT22;47983;53.016;-2.260;2023-09-12T01:29:28;17.00;99.90
59307;DHT22;47983;53.016;-2.260;2023-09-12T01:31:58;17.00;99.90
59307;DHT22;47983;53.016;-2.260;2023-09-12T01:34:28;17.00;99.90
59307;DHT22;47983;53.016;-2.260;2023-09-12T01:36:55;17.00;99.90
59307;DHT22;47983;53.016;-2.260;2023-09-12T01:39:23;17.00;99.90
59307;DHT22;47983;53.016;-2.260;2023-09-12T01:41:54;17.00;99.90
59307;DHT22;47983;53.016;-2.260;2023-09-12T01:44:24;16.90;99.90
59307;DHT22;47983;53.016;-2.260;2023-09-12T01:46:53;16.90;99.90
59307;DHT22;47983;53.016;-2.260;2023-09-12T01:49:24;16.90;99.90
59307;DHT22;47983;53.016;-2.260;2023-09-12T01:51:53;16.90;99.90
59307;DHT22;47983;53.016;-2.260;2023-09-12T01:54:22;16.80;99.90
59307;DHT22;47983;53.016;-2.260;2023-09-12T01:56:50;16.80;99.90
59307;DHT22;47983;53.016;-2.260;2023-09-12T01:59:19;16.80;99.90
59307;DHT22;47983;53.016;-2.260;2023-09-12T02:01:47;16.80;99.90
59307;DHT22;47983;53.016;-2.260;2023-09-12T02:04:14;16.80;99.90
59307;DHT22;47983;53.016;-2.260;2023-09-12T02:06:42;16.70;99.90
59307;DHT22;47983;53.016;-2.260;2023-09-12T02:09:09;16.80;99.90
59307;DHT22;47983;53.016;-2.260;2023-09-12T02:11:37;16.70;99.90
59307;DHT22;47983;53.016;-2.260;2023-09-12T02:14:05;16.70;99.90
59307;DHT22;47983;53.016;-2.260;2023-09-12T02:16:36;16.70;99.90
59307;DHT22;47983;53.016;-2.260;2023-09-12T02:19:11;16.60;99.90
59307;DHT22;47983;53.016;-2.260;2023-09-12T02:21:39;16.70;99.90
59307;DHT22;47983;53.016;-2.260;2023-09-12T02:24:07;16.60;99.90
59307;DHT22;47983;53.016;-2.260;2023-09-12T02:26:35;16.60;99.90
59307;DHT22;47983;53.016;-2.260;2023-09-12T02:29:04;16.60;99.90
59307;DHT22;47983;53.016;-2.260;2023-09-12T02:31:35;16.60;99.90
59307;DHT22;47983;53.016;-2.260;2023-09-12T02:34:02;16.60;99.90
59307;DHT22;47983;53.016;-2.260;2023-09-12T02:36:30;16.60;99.90
59307;DHT22;47983;53.016;-2.260;2023-09-12T02:38:58;16.60;99.90
59307;DHT22;47983;53.016;-2.260;2023-09-12T02:41:26;16.60;99.90
59307;DHT22;47983;53.016;-2.260;2023-09-12T02:43:54;16.50;99.90
59307;DHT22;47983;53.016;-2.260;2023-09-12T02:46:22;16.50;99.90
59307;DHT22;47983;53.016;-2.260;2023-09-12T02:48:49;16.50;99.90
59307;DHT22;47983;53.016;-2.260;2023-09-12T02:51:17;16.50;99.90
59307;DHT22;47983;53.016;-2.260;2023-09-12T02:53:45;16.50;99.90
59307;DHT22;47983;53.016;-2.260;2023-09-12T02:56:13;16.50;99.90
59307;DHT22;47983;53.016;-2.260;2023-09-12T02:58:41;16.40;99.90
59307;DHT22;47983;53.016;-2.260;2023-09-12T03:01:17;16.50;99.90
59307;DHT22;47983;53.016;-2.260;2023-09-12T03:03:46;16.40;99.90
59307;DHT22;47983;53.016;-2.260;2023-09-12T03:06:15;16.40;99.90
59307;DHT22;47983;53.016;-2.260;2023-09-12T03:08:43;16.40;99.90
59307;DHT22;47983;53.016;-2.260;2023-09-12T03:11:11;16.50;99.90
59307;DHT22;47983;53.016;-2.260;2023-09-12T03:13:42;16.40;99.90
59307;DHT22;47983;53.016;-2.260;2023-09-12T03:16:11;16.40;99.90
59307;DHT22;47983;53.016;-2.260;2023-09-12T03:18:38;16.40;99.90
59307;DHT22;47983;53.016;-2.260;2023-09-12T03:21:07;16.40;99.90
59307;DHT22;47983;53.016;-2.260;2023-09-12T03:23:35;16.40;99.90
59307;DHT22;47983;53.016;-2.260;2023-09-12T03:26:04;16.40;99.90
59307;DHT22;47983;53.016;-2.260;2023-09-12T03:28:33;16.40;99.90
59307;DHT22;47983;53.016;-2.260;2023-09-12T03:31:12;16.40;99.90
59307;DHT22;47983;53.016;-2.260;2023-09-12T03:33:41;16.40;99.90
59307;DHT22;47983;53.016;-2.260;2023-09-12T03:36:09;16.40;99.90
59307;DHT22;47983;53.016;-2.260;2023-09-12T03:38:37;16.30;99.90
59307;DHT22;47983;53.016;-2.260;2023-09-12T03:41:05;16.30;99.90
59307;DHT22;47983;53.016;-2.260;2023-09-12T03:43:33;16.40;99.90
59307;DHT22;47983;53.016;-2.260;2023-09-12T03:46:03;16.40;99.90
59307;DHT22;47983;53.016;-2.260;2023-09-12T03:48:31;16.40;99.90
59307;DHT22;47983;53.016;-2.260;2023-09-12T03:50:59;16.30;99.90
59307;DHT22;47983;53.016;-2.260;2023-09-12T03:53:27;16.40;99.90
59307;DHT22;47983;53.016;-2.260;2023-09-12T03:55:55;16.30;99.90
59307;DHT22;47983;53.016;-2.260;2023-09-12T03:58:23;16.30;99.90
59307;DHT22;47983;53.016;-2.260;2023-09-12T04:00:50;16.40;99.90
59307;DHT22;47983;53.016;-2.260;2023-09-12T04:03:18;16.30;99.90
59307;DHT22;47983;53.016;-2.260;2023-09-12T04:08:16;16.30;99.90
59307;DHT22;47983;53.016;-2.260;2023-09-12T04:10:44;16.40;99.90
59307;DHT22;47983;53.016;-2.260;2023-09-12T04:13:12;16.40;99.90
59307;DHT22;47983;53.016;-2.260;2023-09-12T04:15:40;16.40;99.90
59307;DHT22;47983;53.016;-2.260;2023-09-12T04:18:08;16.30;99.90
59307;DHT22;47983;53.016;-2.260;2023-09-12T04:20:35;16.30;99.90
59307;DHT22;47983;53.016;-2.260;2023-09-12T04:23:03;16.30;99.90
59307;DHT22;47983;53.016;-2.260;2023-09-12T04:25:32;16.40;99.90
59307;DHT22;47983;53.016;-2.260;2023-09-12T04:28:00;16.40;99.90
59307;DHT22;47983;53.016;-2.260;2023-09-12T04:30:28;16.30;99.90
59307;DHT22;47983;53.016;-2.260;2023-09-12T04:32:56;16.40;99.90
59307;DHT22;47983;53.016;-2.260;2023-09-12T04:35:24;16.40;99.90
59307;DHT22;47983;53.016;-2.260;2023-09-12T04:37:52;16.30;99.90
59307;DHT22;47983;53.016;-2.260;2023-09-12T04:40:20;16.30;99.90
59307;DHT22;47983;53.016;-2.260;2023-09-12T04:42:48;16.30;99.90
59307;DHT22;47983;53.016;-2.260;2023-09-12T04:45:15;16.30;99.90
59307;DHT22;47983;53.016;-2.260;2023-09-12T04:47:44;16.30;99.90
59307;DHT22;47983;53.016;-2.260;2023-09-12T04:50:11;16.30;99.90
59307;DHT22;47983;53.016;-2.260;2023-09-12T04:52:39;16.30;99.90
59307;DHT22;47983;53.016;-2.260;2023-09-12T04:55:07;16.30;99.90
59307;DHT22;47983;53.016;-2.260;2023-09-12T04:57:35;16.30;99.90
59307;DHT22;47983;53.016;-2.260;2023-09-12T05:00:03;16.30;99.90
59307;DHT22;47983;53.016;-2.260;2023-09-12T05:02:32;16.30;99.90
59307;DHT22;47983;53.016;-2.260;2023-09-12T05:05:00;16.30;99.90
59307;DHT22;47983;53.016;-2.260;2023-09-12T05:07:28;16.30;99.90
59307;DHT22;47983;53.016;-2.260;2023-09-12T05:09:56;16.30;99.90
59307;DHT22;47983;53.016;-2.260;2023-09-12T05:12:24;16.30;99.90
59307;DHT22;47983;53.016;-2.260;2023-09-12T05:14:51;16.30;99.90
59307;DHT22;47983;53.016;-2.260;2023-09-12T05:17:19;16.30;99.90
59307;DHT22;47983;53.016;-2.260;2023-09-12T05:19:47;16.30;99.90
59307;DHT22;47983;53.016;-2.260;2023-09-12T05:22:15;16.30;99.90
59307;DHT22;47983;53.016;-2.260;2023-09-12T05:24:42;16.30;99.90
59307;DHT22;47983;53.016;-2.260;2023-09-12T05:27:10;16.30;99.90
59307;DHT22;47983;53.016;-2.260;2023-09-12T05:29:38;16.30;99.90
59307;DHT22;47983;53.016;-2.260;2023-09-12T05:32:06;16.30;99.90
59307;DHT22;47983;53.016;-2.260;2023-09-12T05:34:34;16.30;99.90
59307;DHT22;47983;53.016;-2.260;2023-09-12T05:37:02;16.30;99.90
59307;DHT22;47983;53.016;-2.260;2023-09-12T05:39:31;16.30;99.90
59307;DHT22;47983;53.016;-2.260;2023-09-12T05:41:58;16.40;99.90
59307;DHT22;47983;53.016;-2.260;2023-09-12T05:44:26;16.30;99.90
59307;DHT22;47983;53.016;-2.260;2023-09-12T05:46:54;16.30;99.90
59307;DHT22;47983;53.016;-2.260;2023-09-12T05:49:22;16.30;99.90
59307;DHT22;47983;53.016;-2.260;2023-09-12T05:51:50;16.30;99.90
59307;DHT22;47983;53.016;-2.260;2023-09-12T05:54:18;16.30;99.90
59307;DHT22;47983;53.016;-2.260;2023-09-12T05:56:47;16.40;99.90
59307;DHT22;47983;53.016;-2.260;2023-09-12T05:59:15;16.40;99.90
59307;DHT22;47983;53.016;-2.260;2023-09-12T06:01:44;16.40;99.90
59307;DHT22;47983;53.016;-2.260;2023-09-12T06:04:12;16.40;99.90
59307;DHT22;47983;53.016;-2.260;2023-09-12T06:06:42;16.40;99.90
59307;DHT22;47983;53.016;-2.260;2023-09-12T06:09:10;16.40;99.90
59307;DHT22;47983;53.016;-2.260;2023-09-12T06:11:38;16.40;99.90
59307;DHT22;47983;53.016;-2.260;2023-09-12T06:14:06;16.40;99.90
59307;DHT22;47983;53.016;-2.260;2023-09-12T06:16:33;16.40;99.90
59307;DHT22;47983;53.016;-2.260;2023-09-12T06:19:01;16.40;99.90
59307;DHT22;47983;53.016;-2.260;2023-09-12T06:21:29;16.50;99.90
59307;DHT22;47983;53.016;-2.260;2023-09-12T06:24:17;16.50;99.90
59307;DHT22;47983;53.016;-2.260;2023-09-12T06:26:44;16.50;99.90
59307;DHT22;47983;53.016;-2.260;2023-09-12T06:29:13;16.50;99.90
59307;DHT22;47983;53.016;-2.260;2023-09-12T06:31:41;16.50;99.90
59307;DHT22;47983;53.016;-2.260;2023-09-12T06:34:10;16.50;99.90
59307;DHT22;47983;53.016;-2.260;2023-09-12T06:36:38;16.50;99.90
59307;DHT22;47983;53.016;-2.260;2023-09-12T06:39:09;16.50;99.90
59307;DHT22;47983;53.016;-2.260;2023-09-12T06:41:37;16.50;99.90
59307;DHT22;47983;53.016;-2.260;2023-09-12T06:44:05;16.50;99.90
59307;DHT22;47983;53.016;-2.260;2023-09-12T06:46:34;16.50;99.90
59307;DHT22;47983;53.016;-2.260;2023-09-12T06:49:05;16.50;99.90
59307;DHT22;47983;53.016;-2.260;2023-09-12T06:51:36;16.60;99.90
59307;DHT22;47983;53.016;-2.260;2023-09-12T06:54:06;16.60;99.90
59307;DHT22;47983;53.016;-2.260;2023-09-12T06:56:34;16.60;99.90
59307;DHT22;47983;53.016;-2.260;2023-09-12T06:59:05;16.60;99.90
59307;DHT22;47983;53.016;-2.260;2023-09-12T07:01:33;16.60;99.90
59307;DHT22;47983;53.016;-2.260;2023-09-12T07:04:01;16.60;99.90
59307;DHT22;47983;53.016;-2.260;2023-09-12T07:06:30;16.70;99.90
59307;DHT22;47983;53.016;-2.260;2023-09-12T07:09:00;16.60;99.90
59307;DHT22;47983;53.016;-2.260;2023-09-12T07:11:28;16.70;99.90
59307;DHT22;47983;53.016;-2.260;2023-09-12T07:13:55;16.70;99.90
59307;DHT22;47983;53.016;-2.260;2023-09-12T07:16:26;16.70;99.90
59307;DHT22;47983;53.016;-2.260;2023-09-12T07:18:54;16.70;99.90
59307;DHT22;47983;53.016;-2.260;2023-09-12T07:21:21;16.70;99.90
59307;DHT22;47983;53.016;-2.260;2023-09-12T07:23:49;16.70;99.90
59307;DHT22;47983;53.016;-2.260;2023-09-12T07:26:17;16.70;99.90
59307;DHT22;47983;53.016;-2.260;2023-09-12T07:28:45;16.70;99.90
59307;DHT22;47983;53.016;-2.260;2023-09-12T07:31:13;16.70;99.90
59307;DHT22;47983;53.016;-2.260;2023-09-12T07:33:41;16.70;99.90
59307;DHT22;47983;53.016;-2.260;2023-09-12T07:36:09;16.70;99.90
59307;DHT22;47983;53.016;-2.260;2023-09-12T07:38:37;16.60;99.90
59307;DHT22;47983;53.016;-2.260;2023-09-12T07:41:05;16.60;99.90
59307;DHT22;47983;53.016;-2.260;2023-09-12T07:43:33;16.50;99.90
59307;DHT22;47983;53.016;-2.260;2023-09-12T07:46:01;16.40;99.90
59307;DHT22;47983;53.016;-2.260;2023-09-12T07:48:28;16.30;99.90
59307;DHT22;47983;53.016;-2.260;2023-09-12T07:50:56;16.20;99.90
59307;DHT22;47983;53.016;-2.260;2023-09-12T07:53:24;16.10;99.90
59307;DHT22;47983;53.016;-2.260;2023-09-12T07:55:52;16.00;99.90
59307;DHT22;47983;53.016;-2.260;2023-09-12T07:58:20;16.00;99.90
59307;DHT22;47983;53.016;-2.260;2023-09-12T08:00:48;15.90;99.90
59307;DHT22;47983;53.016;-2.260;2023-09-12T08:03:17;15.90;99.90
59307;DHT22;47983;53.016;-2.260;2023-09-12T08:05:57;15.80;99.90
59307;DHT22;47983;53.016;-2.260;2023-09-12T08:08:25;15.80;99.90
59307;DHT22;47983;53.016;-2.260;2023-09-12T08:10:53;15.70;99.90
59307;DHT22;47983;53.016;-2.260;2023-09-12T08:13:21;15.60;99.90
59307;DHT22;47983;53.016;-2.260;2023-09-12T08:15:49;15.60;99.90
59307;DHT22;47983;53.016;-2.260;2023-09-12T08:18:17;15.70;99.90
59307;DHT22;47983;53.016;-2.260;2023-09-12T08:20:44;15.70;99.90
59307;DHT22;47983;53.016;-2.260;2023-09-12T08:23:12;15.80;99.90
59307;DHT22;47983;53.016;-2.260;2023-09-12T08:25:40;15.80;99.90
59307;DHT22;47983;53.016;-2.260;2023-09-12T08:28:07;15.90;99.90
59307;DHT22;47983;53.016;-2.260;2023-09-12T08:30:35;15.80;99.90
59307;DHT22;47983;53.016;-2.260;2023-09-12T08:33:04;15.90;99.90
59307;DHT22;47983;53.016;-2.260;2023-09-12T08:35:34;15.80;99.90
59307;DHT22;47983;53.016;-2.260;2023-09-12T08:38:01;15.80;99.90
59307;DHT22;47983;53.016;-2.260;2023-09-12T08:40:30;15.80;99.90
59307;DHT22;47983;53.016;-2.260;2023-09-12T08:42:58;15.80;99.90
59307;DHT22;47983;53.016;-2.260;2023-09-12T08:45:26;15.90;99.90
59307;DHT22;47983;53.016;-2.260;2023-09-12T08:47:56;15.90;99.90
59307;DHT22;47983;53.016;-2.260;2023-09-12T08:50:25;15.90;99.90
59307;DHT22;47983;53.016;-2.260;2023-09-12T08:52:56;15.90;99.90
59307;DHT22;47983;53.016;-2.260;2023-09-12T08:55:35;15.80;99.90
59307;DHT22;47983;53.016;-2.260;2023-09-12T08:58:05;15.70;99.90
59307;DHT22;47983;53.016;-2.260;2023-09-12T09:00:35;15.80;99.90
59307;DHT22;47983;53.016;-2.260;2023-09-12T09:03:04;15.80;99.90
59307;DHT22;47983;53.016;-2.260;2023-09-12T09:05:33;15.80;99.90
59307;DHT22;47983;53.016;-2.260;2023-09-12T09:08:03;15.80;99.90
59307;DHT22;47983;53.016;-2.260;2023-09-12T09:10:31;15.80;99.90
59307;DHT22;47983;53.016;-2.260;2023-09-12T09:13:16;15.80;99.90
59307;DHT22;47983;53.016;-2.260;2023-09-12T09:15:44;15.90;99.90
59307;DHT22;47983;53.016;-2.260;2023-09-12T09:18:12;15.90;99.90
59307;DHT22;47983;53.016;-2.260;2023-09-12T09:20:40;15.90;99.90
59307;DHT22;47983;53.016;-2.260;2023-09-12T09:23:10;16.00;99.90
59307;DHT22;47983;53.016;-2.260;2023-09-12T09:25:43;16.00;99.90
59307;DHT22;47983;53.016;-2.260;2023-09-12T09:28:19;16.00;99.90
59307;DHT22;47983;53.016;-2.260;2023-09-12T09:30:49;16.10;99.90
59307;DHT22;47983;53.016;-2.260;2023-09-12T09:33:21;16.10;99.90
59307;DHT22;47983;53.016;-2.260;2023-09-12T09:35:49;16.10;99.90
59307;DHT22;47983;53.016;-2.260;2023-09-12T09:38:19;16.20;99.90
59307;DHT22;47983;53.016;-2.260;2023-09-12T09:40:48;16.20;99.90
59307;DHT22;47983;53.016;-2.260;2023-09-12T09:43:22;16.20;99.90
59307;DHT22;47983;53.016;-2.260;2023-09-12T09:45:50;16.20;99.90
59307;DHT22;47983;53.016;-2.260;2023-09-12T09:50:47;16.20;99.90
59307;DHT22;47983;53.016;-2.260;2023-09-12T09:53:15;16.30;99.90
59307;DHT22;47983;53.016;-2.260;2023-09-12T09:55:43;16.30;99.90
59307;DHT22;47983;53.016;-2.260;2023-09-12T09:58:17;16.30;99.90
59307;DHT22;47983;53.016;-2.260;2023-09-12T10:00:45;16.30;99.90
59307;DHT22;47983;53.016;-2.260;2023-09-12T10:03:18;16.40;99.90
59307;DHT22;47983;53.016;-2.260;2023-09-12T10:05:51;16.40;99.90
59307;DHT22;47983;53.016;-2.260;2023-09-12T10:08:21;16.40;99.90
59307;DHT22;47983;53.016;-2.260;2023-09-12T10:10:51;16.40;99.90
59307;DHT22;47983;53.016;-2.260;2023-09-12T10:13:19;16.40;99.90
59307;DHT22;47983;53.016;-2.260;2023-09-12T10:15:49;16.40;99.90
59307;DHT22;47983;53.016;-2.260;2023-09-12T10:18:20;16.40;99.90
59307;DHT22;47983;53.016;-2.260;2023-09-12T10:20:55;16.40;99.90
59307;DHT22;47983;53.016;-2.260;2023-09-12T10:23:45;16.40;99.90
59307;DHT22;47983;53.016;-2.260;2023-09-12T10:26:18;16.30;99.90
59307;DHT22;47983;53.016;-2.260;2023-09-12T10:28:48;16.30;99.90
59307;DHT22;47983;53.016;-2.260;2023-09-12T10:31:17;16.30;99.90
59307;DHT22;47983;53.016;-2.260;2023-09-12T10:33:46;16.40;99.90
59307;DHT22;47983;53.016;-2.260;2023-09-12T10:36:17;16.40;99.90
59307;DHT22;47983;53.016;-2.260;2023-09-12T10:38:48;16.60;99.90
59307;DHT22;47983;53.016;-2.260;2023-09-12T10:41:16;16.60;99.90
59307;DHT22;47983;53.016;-2.260;2023-09-12T10:43:45;16.80;99.90
59307;DHT22;47983;53.016;-2.260;2023-09-12T10:46:17;16.90;99.90
59307;DHT22;47983;53.016;-2.260;2023-09-12T10:48:45;17.00;99.90
59307;DHT22;47983;53.016;-2.260;2023-09-12T10:51:13;17.00;99.90
59307;DHT22;47983;53.016;-2.260;2023-09-12T10:53:49;17.10;99.90
59307;DHT22;47983;53.016;-2.260;2023-09-12T10:56:21;17.10;99.90
59307;DHT22;47983;53.016;-2.260;2023-09-12T11:01:39;17.20;99.90
59307;DHT22;47983;53.016;-2.260;2023-09-12T11:06:48;17.10;99.90
59307;DHT22;47983;53.016;-2.260;2023-09-12T11:11:59;17.00;99.90
59307;DHT22;47983;53.016;-2.260;2023-09-12T11:14:29;17.00;99.90
59307;DHT22;47983;53.016;-2.260;2023-09-12T11:19:45;16.90;99.90
59307;DHT22;47983;53.016;-2.260;2023-09-12T11:22:28;16.80;99.90
59307;DHT22;47983;53.016;-2.260;2023-09-12T11:24:56;16.80;99.90
59307;DHT22;47983;53.016;-2.260;2023-09-12T11:27:30;16.70;99.90
59307;DHT22;47983;53.016;-2.260;2023-09-12T11:30:05;16.70;99.90
59307;DHT22;47983;53.016;-2.260;2023-09-12T11:32:36;16.80;99.90
59307;DHT22;47983;53.016;-2.260;2023-09-12T11:35:08;16.80;99.90
59307;DHT22;47983;53.016;-2.260;2023-09-12T11:37:36;16.90;99.90
59307;DHT22;47983;53.016;-2.260;2023-09-12T11:42:40;17.10;99.90
59307;DHT22;47983;53.016;-2.260;2023-09-12T11:45:10;17.20;99.90
59307;DHT22;47983;53.016;-2.260;2023-09-12T11:47:41;17.20;99.90
59307;DHT22;47983;53.016;-2.260;2023-09-12T11:50:26;17.30;99.90
59307;DHT22;47983;53.016;-2.260;2023-09-12T11:53:05;17.40;99.90
59307;DHT22;47983;53.016;-2.260;2023-09-12T11:55:48;17.40;99.90
59307;DHT22;47983;53.016;-2.260;2023-09-12T11:58:17;17.40;99.90
59307;DHT22;47983;53.016;-2.260;2023-09-12T12:00:51;17.50;99.90
59307;DHT22;47983;53.016;-2.260;2023-09-12T12:03:22;17.60;99.90
59307;DHT22;47983;53.016;-2.260;2023-09-12T12:05:51;17.60;99.90
59307;DHT22;47983;53.016;-2.260;2023-09-12T12:08:20;17.60;99.90
59307;DHT22;47983;53.016;-2.260;2023-09-12T12:10:59;17.70;99.90
59307;DHT22;47983;53.016;-2.260;2023-09-12T12:13:27;17.70;99.90
59307;DHT22;47983;53.016;-2.260;2023-09-12T12:15:57;17.70;99.90
59307;DHT22;47983;53.016;-2.260;2023-09-12T12:18:25;17.70;99.90
59307;DHT22;47983;53.016;-2.260;2023-09-12T12:20:55;17.60;99.90
59307;DHT22;47983;53.016;-2.260;2023-09-12T12:23:23;17.60;99.90
59307;DHT22;47983;53.016;-2.260;2023-09-12T12:25:50;17.50;99.90
59307;DHT22;47983;53.016;-2.260;2023-09-12T12:28:18;17.50;99.90
59307;DHT22;47983;53.016;-2.260;2023-09-12T12:30:46;17.50;99.90
59307;DHT22;47983;53.016;-2.260;2023-09-12T12:33:14;17.50;99.90
59307;DHT22;47983;53.016;-2.260;2023-09-12T12:36:03;17.50;99.90
59307;DHT22;47983;53.016;-2.260;2023-09-12T12:38:34;17.50;99.90
59307;DHT22;47983;53.016;-2.260;2023-09-12T12:41:05;17.40;99.90
59307;DHT22;47983;53.016;-2.260;2023-09-12T12:43:33;17.40;99.90
59307;DHT22;47983;53.016;-2.260;2023-09-12T12:46:01;17.40;99.90
59307;DHT22;47983;53.016;-2.260;2023-09-12T12:48:32;17.40;99.90
59307;DHT22;47983;53.016;-2.260;2023-09-12T12:51:13;17.30;99.90
59307;DHT22;47983;53.016;-2.260;2023-09-12T12:53:51;17.30;99.90
59307;DHT22;47983;53.016;-2.260;2023-09-12T12:56:28;17.30;99.90
59307;DHT22;47983;53.016;-2.260;2023-09-12T12:59:00;17.30;99.90
59307;DHT22;47983;53.016;-2.260;2023-09-12T13:01:31;17.40;99.90
59307;DHT22;47983;53.016;-2.260;2023-09-12T13:03:58;17.30;99.90
59307;DHT22;47983;53.016;-2.260;2023-09-12T13:06:27;17.30;99.90
59307;DHT22;47983;53.016;-2.260;2023-09-12T13:08:57;17.30;99.90
59307;DHT22;47983;53.016;-2.260;2023-09-12T13:11:26;17.40;99.90
59307;DHT22;47983;53.016;-2.260;2023-09-12T13:13:54;17.40;99.90
59307;DHT22;47983;53.016;-2.260;2023-09-12T13:16:22;17.40;99.90
59307;DHT22;47983;53.016;-2.260;2023-09-12T13:18:50;17.40;99.90
59307;DHT22;47983;53.016;-2.260;2023-09-12T13:21:17;17.40;99.90
59307;DHT22;47983;53.016;-2.260;2023-09-12T13:23:45;17.40;99.90
59307;DHT22;47983;53.016;-2.260;2023-09-12T13:26:13;17.30;99.90
59307;DHT22;47983;53.016;-2.260;2023-09-12T13:28:41;17.40;99.90
59307;DHT22;47983;53.016;-2.260;2023-09-12T13:31:09;17.30;99.90
59307;DHT22;47983;53.016;-2.260;2023-09-12T13:33:37;17.40;99.90
59307;DHT22;47983;53.016;-2.260;2023-09-12T13:36:05;17.40;99.90
59307;DHT22;47983;53.016;-2.260;2023-09-12T13:38:33;17.40;99.90
59307;DHT22;47983;53.016;-2.260;2023-09-12T13:41:00;17.40;99.90
59307;DHT22;47983;53.016;-2.260;2023-09-12T13:43:28;17.30;99.90
59307;DHT22;47983;53.016;-2.260;2023-09-12T13:45:56;17.30;99.90
59307;DHT22;47983;53.016;-2.260;2023-09-12T13:48:24;17.30;99.90
59307;DHT22;47983;53.016;-2.260;2023-09-12T13:50:53;17.30;99.90
59307;DHT22;47983;53.016;-2.260;2023-09-12T13:53:23;17.30;99.90
59307;DHT22;47983;53.016;-2.260;2023-09-12T13:55:51;17.20;99.90
59307;DHT22;47983;53.016;-2.260;2023-09-12T13:58:18;17.20;99.90
59307;DHT22;47983;53.016;-2.260;2023-09-12T14:00:46;17.20;99.90
59307;DHT22;47983;53.016;-2.260;2023-09-12T14:03:14;17.20;99.90
59307;DHT22;47983;53.016;-2.260;2023-09-12T14:05:43;17.20;99.90
59307;DHT22;47983;53.016;-2.260;2023-09-12T14:08:11;17.20;99.90
59307;DHT22;47983;53.016;-2.260;2023-09-12T14:10:39;17.20;99.90
59307;DHT22;47983;53.016;-2.260;2023-09-12T14:13:08;17.20;99.90
59307;DHT22;47983;53.016;-2.260;2023-09-12T14:15:48;17.10;99.90
59307;DHT22;47983;53.016;-2.260;2023-09-12T14:18:19;17.10;99.90
59307;DHT22;47983;53.016;-2.260;2023-09-12T14:20:48;17.00;99.90
59307;DHT22;47983;53.016;-2.260;2023-09-12T14:23:21;16.80;99.90
59307;DHT22;47983;53.016;-2.260;2023-09-12T14:25:49;16.60;99.90
59307;DHT22;47983;53.016;-2.260;2023-09-12T14:28:17;16.40;99.90
59307;DHT22;47983;53.016;-2.260;2023-09-12T14:30:45;16.30;99.90
59307;DHT22;47983;53.016;-2.260;2023-09-12T14:33:13;16.40;99.90
59307;DHT22;47983;53.016;-2.260;2023-09-12T14:35:44;16.40;99.90
59307;DHT22;47983;53.016;-2.260;2023-09-12T14:38:12;16.50;99.90
59307;DHT22;47983;53.016;-2.260;2023-09-12T14:40:40;16.70;99.90
59307;DHT22;47983;53.016;-2.260;2023-09-12T14:43:12;16.90;99.90
59307;DHT22;47983;53.016;-2.260;2023-09-12T14:45:39;17.10;99.90
59307;DHT22;47983;53.016;-2.260;2023-09-12T14:48:07;17.20;99.90
59307;DHT22;47983;53.016;-2.260;2023-09-12T14:50:35;17.40;99.90
59307;DHT22;47983;53.016;-2.260;2023-09-12T14:53:13;17.50;99.90
59307;DHT22;47983;53.016;-2.260;2023-09-12T14:55:44;17.60;99.90
59307;DHT22;47983;53.016;-2.260;2023-09-12T14:58:12;17.60;99.90
59307;DHT22;47983;53.016;-2.260;2023-09-12T15:00:39;17.70;99.90
59307;DHT22;47983;53.016;-2.260;2023-09-12T15:03:07;17.70;99.90
59307;DHT22;47983;53.016;-2.260;2023-09-12T15:05:35;17.60;99.90
59307;DHT22;47983;53.016;-2.260;2023-09-12T15:08:03;17.50;99.90
59307;DHT22;47983;53.016;-2.260;2023-09-12T15:10:31;17.40;99.90
59307;DHT22;47983;53.016;-2.260;2023-09-12T15:12:59;17.30;99.90
59307;DHT22;47983;53.016;-2.260;2023-09-12T15:15:27;17.20;99.90
59307;DHT22;47983;53.016;-2.260;2023-09-12T15:17:55;17.10;99.90
59307;DHT22;47983;53.016;-2.260;2023-09-12T15:20:24;17.00;99.90
59307;DHT22;47983;53.016;-2.260;2023-09-12T15:22:52;16.90;99.90
59307;DHT22;47983;53.016;-2.260;2023-09-12T15:25:20;16.80;99.90
59307;DHT22;47983;53.016;-2.260;2023-09-12T15:27:47;16.80;99.90
59307;DHT22;47983;53.016;-2.260;2023-09-12T15:30:15;16.80;99.90
59307;DHT22;47983;53.016;-2.260;2023-09-12T15:32:43;16.80;99.90
59307;DHT22;47983;53.016;-2.260;2023-09-12T15:35:12;16.80;99.90
59307;DHT22;47983;53.016;-2.260;2023-09-12T15:37:40;16.90;99.90
59307;DHT22;47983;53.016;-2.260;2023-09-12T15:40:09;16.70;99.90
59307;DHT22;47983;53.016;-2.260;2023-09-12T15:42:37;16.70;99.90
59307;DHT22;47983;53.016;-2.260;2023-09-12T15:45:05;16.80;99.90
59307;DHT22;47983;53.016;-2.260;2023-09-12T15:47:36;16.80;99.90
59307;DHT22;47983;53.016;-2.260;2023-09-12T15:50:05;16.80;99.90